Time;durP1;ratioP1;P1;durP2;ratioP2;P2;SDS_P1;SDS_P2;PMS_P1;PMS_P2;Temp;Humidity;BMP_temperature;BMP_pressure;BME280_temperature;BME280_humidity;BME280_pressure;Samples;Min_cycle;Max_cycle;Signal;HPM_P1;HPM_P2
2023/11/05 00:02:12;;;;;;;1.85;1.33;;;;;;;;;;5084630;28;20051;-71
2023/11/05 00:04:42;;;;;;;2.05;1.38;;;;;;;;;;5084577;28;20418;-71
2023/11/05 00:07:12;;;;;;;3.03;1.60;;;;;;;;;;5082670;28;20411;-71
2023/11/05 00:09:43;;;;;;;2.42;1.67;;;;;;;;;;5083707;28;20052;-72
2023/11/05 00:12:14;;;;;;;3.78;1.95;;;;;;;;;;5084574;28;20051;-71
2023/11/05 00:14:44;;;;;;;2.88;1.77;;;;;;;;;;5084228;28;20905;-72
2023/11/05 00:17:15;;;;;;;3.60;1.83;;;;;;;;;;5084868;28;20047;-72
2023/11/05 00:19:45;;;;;;;2.85;2.00;;;;;;;;;;5084539;28;20430;-70
2023/11/05 00:22:18;;;;;;;2.17;1.70;;;;;;;;;;5084830;28;20414;-70
2023/11/05 00:24:50;;;;;;;5.35;1.88;;;;;;;;;;5084866;28;20059;-72
2023/11/05 00:27:21;;;;;;;4.88;2.00;;;;;;;;;;5085139;28;20056;-71
2023/11/05 00:29:54;;;;;;;3.55;1.83;;;;;;;;;;5082834;28;20052;-71
2023/11/05 00:32:26;;;;;;;6.38;2.70;;;;;;;;;;5084736;28;20063;-71
2023/11/05 00:34:55;;;;;;;3.35;2.13;;;;;;;;;;5080624;28;20529;-71
2023/11/05 00:37:26;;;;;;;3.90;2.20;;;;;;;;;;5082447;28;20052;-73
2023/11/05 00:39:57;;;;;;;3.47;1.95;;;;;;;;;;5080400;28;20375;-71
2023/11/05 00:42:31;;;;;;;4.35;2.28;;;;;;;;;;5081825;28;20044;-71
2023/11/05 00:45:02;;;;;;;5.10;2.30;;;;;;;;;;5082719;28;20052;-72
2023/11/05 00:47:32;;;;;;;3.25;2.25;;;;;;;;;;5083428;28;20036;-71
2023/11/05 00:50:03;;;;;;;2.90;2.08;;;;;;;;;;5082706;28;20043;-73
2023/11/05 00:52:34;;;;;;;3.75;2.25;;;;;;;;;;5081412;28;20091;-70
2023/11/05 00:55:05;;;;;;;3.88;1.95;;;;;;;;;;5081605;28;20044;-72
2023/11/05 00:57:35;;;;;;;3.47;2.28;;;;;;;;;;5080963;28;20051;-71
2023/11/05 01:00:08;;;;;;;6.60;2.60;;;;;;;;;;5081779;28;20450;-72
2023/11/05 01:02:52;;;;;;;10.00;2.38;;;;;;;;;;5081645;28;20044;-72
2023/11/05 01:05:24;;;;;;;4.28;2.13;;;;;;;;;;5082974;28;20040;-72
2023/11/05 01:07:56;;;;;;;4.15;1.92;;;;;;;;;;5079173;28;20095;-72
2023/11/05 01:10:28;;;;;;;2.72;1.92;;;;;;;;;;5083102;28;20047;-73
2023/11/05 01:12:59;;;;;;;4.78;2.33;;;;;;;;;;5083182;28;20036;-73
2023/11/05 01:15:31;;;;;;;6.47;3.90;;;;;;;;;;5064747;28;20067;-72
2023/11/05 01:18:05;;;;;;;10.27;4.90;;;;;;;;;;5082169;28;20048;-71
2023/11/05 01:20:37;;;;;;;26.83;12.63;;;;;;;;;;5081134;28;20506;-71
2023/11/05 01:23:07;;;;;;;24.80;10.60;;;;;;;;;;5081168;28;20044;-73
2023/11/05 01:25:38;;;;;;;78.57;35.17;;;;;;;;;;5082452;28;20051;-73
2023/11/05 01:28:09;;;;;;;20.60;10.80;;;;;;;;;;5082999;28;20414;-71
2023/11/05 01:30:42;;;;;;;16.95;8.25;;;;;;;;;;5077808;28;20052;-71
2023/11/05 01:33:12;;;;;;;15.63;7.25;;;;;;;;;;5080345;28;20043;-71
2023/11/05 01:35:47;;;;;;;9.85;6.03;;;;;;;;;;5082241;28;20039;-73
2023/11/05 01:38:38;;;;;;;9.43;4.88;;;;;;;;;;5080112;28;20052;-73
2023/11/05 01:41:11;;;;;;;10.88;3.85;;;;;;;;;;5081052;28;20517;-73
2023/11/05 01:43:45;;;;;;;3.50;2.47;;;;;;;;;;5074875;28;20081;-72
2023/11/05 01:46:22;;;;;;;2.53;1.83;;;;;;;;;;5078896;28;20051;-73
2023/11/05 01:48:58;;;;;;;5.43;2.75;;;;;;;;;;5080996;28;20040;-73
2023/11/05 01:51:29;;;;;;;4.32;2.70;;;;;;;;;;5082735;28;20043;-72
2023/11/05 01:54:12;;;;;;;6.13;3.38;;;;;;;;;;5081009;28;20521;-72
2023/11/05 01:56:42;;;;;;;5.03;3.05;;;;;;;;;;5062607;28;20052;-72
2023/11/05 01:59:14;;;;;;;6.82;3.47;;;;;;;;;;5080115;28;20521;-74
2023/11/05 02:01:46;;;;;;;4.95;2.83;;;;;;;;;;5079949;28;20044;-73
2023/11/05 02:04:17;;;;;;;7.05;3.20;;;;;;;;;;5077582;28;20410;-71
2023/11/05 02:06:47;;;;;;;6.05;3.08;;;;;;;;;;5078992;28;20059;-74
2023/11/05 02:09:17;;;;;;;;;;;;;;;;;;5080596;28;20043;-72
2023/11/05 02:11:47;;;;;;;5.45;2.20;;;;;;;;;;5074939;28;19923;-72
2023/11/05 02:14:18;;;;;;;7.43;1.98;;;;;;;;;;5082647;28;20051;-72
2023/11/05 02:16:49;;;;;;;4.82;2.45;;;;;;;;;;5082066;28;20043;-72
2023/11/05 02:19:19;;;;;;;3.50;2.03;;;;;;;;;;5076807;28;20052;-73
2023/11/05 02:22:03;;;;;;;6.32;1.92;;;;;;;;;;5081731;28;20043;-73
2023/11/05 02:24:33;;;;;;;4.03;2.30;;;;;;;;;;5079514;28;20063;-72
2023/11/05 02:27:05;;;;;;;3.65;1.83;;;;;;;;;;5078366;28;20418;-73
2023/11/05 02:29:38;;;;;;;3.53;2.00;;;;;;;;;;5059655;28;20423;-73
2023/11/05 02:32:08;;;;;;;7.55;2.75;;;;;;;;;;5042953;28;20521;-73
2023/11/05 02:34:39;;;;;;;6.20;2.47;;;;;;;;;;5060781;28;20640;-73
2023/11/05 02:37:11;;;;;;;6.32;2.00;;;;;;;;;;5062541;28;20499;-72
2023/11/05 02:39:44;;;;;;;4.45;1.95;;;;;;;;;;5062322;28;20055;-73
2023/11/05 02:42:14;;;;;;;3.42;2.00;;;;;;;;;;5076802;28;20400;-74
2023/11/05 02:44:44;;;;;;;;;;;;;;;;;;5062055;28;20593;-72
2023/11/05 02:47:15;;;;;;;6.10;2.10;;;;;;;;;;5062384;28;19924;-71
2023/11/05 02:49:46;;;;;;;4.10;2.05;;;;;;;;;;5062083;28;20045;-73
2023/11/05 02:52:17;;;;;;;6.20;2.00;;;;;;;;;;5062043;28;20044;-72
2023/11/05 02:54:48;;;;;;;5.50;2.03;;;;;;;;;;5062064;28;20049;-73
2023/11/05 02:57:20;;;;;;;5.68;1.95;;;;;;;;;;5060387;28;20617;-72
2023/11/05 02:59:52;;;;;;;3.88;1.92;;;;;;;;;;5061840;28;20048;-72
2023/11/05 03:02:22;;;;;;;4.80;1.77;;;;;;;;;;5061964;28;20056;-73
2023/11/05 03:04:57;;;;;;;2.25;1.35;;;;;;;;;;5061545;28;20048;-72
2023/11/05 03:07:29;;;;;;;2.15;1.23;;;;;;;;;;5061526;28;20052;-72
2023/11/05 03:10:00;;;;;;;4.20;1.67;;;;;;;;;;5060485;28;20467;-77
2023/11/05 03:12:30;;;;;;;4.38;2.10;;;;;;;;;;5062026;28;20479;-72
2023/11/05 03:15:00;;;;;;;4.03;1.80;;;;;;;;;;5061804;28;20423;-72
2023/11/05 03:17:31;;;;;;;6.05;1.65;;;;;;;;;;5062177;28;20134;-73
2023/11/05 03:20:07;;;;;;;5.38;1.88;;;;;;;;;;5060806;28;20048;-73
2023/11/05 03:22:39;;;;;;;3.05;1.70;;;;;;;;;;5061783;28;20048;-72
2023/11/05 03:25:10;;;;;;;2.60;1.63;;;;;;;;;;5075854;28;20056;-72
2023/11/05 03:27:41;;;;;;;5.47;1.50;;;;;;;;;;5061751;28;20079;-73
2023/11/05 03:30:13;;;;;;;4.53;1.40;;;;;;;;;;5061069;28;20055;-72
2023/11/05 03:32:44;;;;;;;2.42;1.65;;;;;;;;;;5044049;28;20041;-73
2023/11/05 03:35:13;;;;;;;;;;;;;;;;;;5061765;28;20055;-73
2023/11/05 03:37:44;;;;;;;7.10;2.10;;;;;;;;;;5061605;28;19924;-74
2023/11/05 03:40:16;;;;;;;4.57;1.92;;;;;;;;;;5060895;28;20044;-73
2023/11/05 03:42:48;;;;;;;3.25;1.83;;;;;;;;;;5061815;28;20044;-72
2023/11/05 03:45:18;;;;;;;3.70;1.77;;;;;;;;;;5062288;28;20048;-72
2023/11/05 03:47:48;;;;;;;;;;;;;;;;;;5062038;28;20050;-72
2023/11/05 03:50:20;;;;;;;4.88;1.83;;;;;;;;;;5061190;28;19924;-72
2023/11/05 03:52:51;;;;;;;2.60;1.40;;;;;;;;;;5061362;28;20052;-73
2023/11/05 03:55:21;;;;;;;8.10;1.85;;;;;;;;;;5059053;28;20067;-75
2023/11/05 03:57:52;;;;;;;2.28;1.70;;;;;;;;;;5059094;28;20396;-73
2023/11/05 04:00:23;;;;;;;4.75;1.58;;;;;;;;;;5061174;28;20055;-72
2023/11/05 04:02:54;;;;;;;6.90;1.98;;;;;;;;;;5059896;28;20049;-72
2023/11/05 04:05:24;;;;;;;5.05;1.98;;;;;;;;;;5064155;28;20044;-72
2023/11/05 04:07:56;;;;;;;4.32;1.83;;;;;;;;;;5062766;28;20415;-72
2023/11/05 04:10:26;;;;;;;6.82;1.73;;;;;;;;;;5064601;28;20489;-72
2023/11/05 04:13:00;;;;;;;3.50;1.73;;;;;;;;;;5064429;28;20658;-73
2023/11/05 04:15:30;;;;;;;2.35;1.42;;;;;;;;;;5065218;28;20052;-72
2023/11/05 04:18:00;;;;;;;3.47;2.00;;;;;;;;;;5064704;28;20720;-73
2023/11/05 04:20:32;;;;;;;2.22;1.35;;;;;;;;;;5064440;28;20049;-73
2023/11/05 04:23:04;;;;;;;5.38;1.80;;;;;;;;;;5064848;28;20052;-72
2023/11/05 04:25:36;;;;;;;7.00;2.15;;;;;;;;;;5062928;28;20040;-72
2023/11/05 04:28:07;;;;;;;4.22;1.70;;;;;;;;;;5064401;28;20533;-73
2023/11/05 04:30:37;;;;;;;6.63;1.80;;;;;;;;;;5064751;28;20048;-72
2023/11/05 04:33:09;;;;;;;6.30;2.47;;;;;;;;;;5063876;28;20044;-72
2023/11/05 04:35:39;;;;;;;3.17;1.80;;;;;;;;;;5064476;28;20052;-72
2023/11/05 04:38:09;;;;;;;3.58;1.90;;;;;;;;;;5064417;28;20060;-72
2023/11/05 04:40:39;;;;;;;3.63;1.85;;;;;;;;;;5063598;28;20043;-72
2023/11/05 04:43:10;;;;;;;6.13;2.28;;;;;;;;;;5064106;28;20388;-73
2023/11/05 04:45:40;;;;;;;3.13;1.70;;;;;;;;;;5062270;28;20057;-72
2023/11/05 04:48:11;;;;;;;;;;;;;;;;;;5064280;28;20055;-72
2023/11/05 04:50:41;;;;;;;8.43;2.63;;;;;;;;;;5063385;28;19924;-72
2023/11/05 04:53:12;;;;;;;6.20;2.65;;;;;;;;;;5063856;28;20391;-73
2023/11/05 04:55:43;;;;;;;9.73;2.17;;;;;;;;;;5064053;28;20063;-72
2023/11/05 04:58:13;;;;;;;4.07;1.80;;;;;;;;;;5063854;28;20515;-73
2023/11/05 05:00:43;;;;;;;4.55;1.85;;;;;;;;;;5063100;28;20056;-73
2023/11/05 05:03:13;;;;;;;3.08;1.73;;;;;;;;;;5060855;28;20048;-72
2023/11/05 05:05:44;;;;;;;1.85;1.45;;;;;;;;;;5058331;28;20056;-72
2023/11/05 05:08:14;;;;;;;2.13;1.40;;;;;;;;;;5061195;28;20102;-72
2023/11/05 05:10:44;;;;;;;2.58;1.35;;;;;;;;;;5061706;28;20048;-74
2023/11/05 05:13:15;;;;;;;2.05;1.25;;;;;;;;;;5060355;28;20491;-73
2023/11/05 05:15:45;;;;;;;3.70;1.55;;;;;;;;;;5060506;28;20051;-72
2023/11/05 05:18:15;;;;;;;2.42;1.50;;;;;;;;;;5061563;28;20541;-72
2023/11/05 05:20:46;;;;;;;5.78;2.00;;;;;;;;;;5062151;28;20057;-72
2023/11/05 05:23:16;;;;;;;2.83;1.33;;;;;;;;;;5063047;28;20049;-72
2023/11/05 05:25:46;;;;;;;6.45;1.40;;;;;;;;;;5063623;28;20404;-72
2023/11/05 05:28:18;;;;;;;1.65;1.13;;;;;;;;;;5063239;28;20411;-72
2023/11/05 05:30:48;;;;;;;2.67;1.30;;;;;;;;;;5063444;28;20051;-72
2023/11/05 05:33:19;;;;;;;5.30;1.30;;;;;;;;;;5062861;28;20506;-73
2023/11/05 05:35:49;;;;;;;;;;;;;;;;;;5078665;28;20044;-72
2023/11/05 05:38:22;;;;;;;2.03;1.15;;;;;;;;;;5063284;28;19927;-74
2023/11/05 05:40:53;;;;;;;2.40;1.15;;;;;;;;;;5062996;28;20476;-72
2023/11/05 05:43:23;;;;;;;2.30;1.20;;;;;;;;;;5063540;28;20411;-73
2023/11/05 05:45:53;;;;;;;1.85;1.27;;;;;;;;;;5063149;28;20055;-73
2023/11/05 05:48:24;;;;;;;1.88;1.10;;;;;;;;;;5063183;28;20052;-73
2023/11/05 05:50:56;;;;;;;3.05;1.13;;;;;;;;;;5062947;28;20056;-73
2023/11/05 05:53:26;;;;;;;2.08;1.25;;;;;;;;;;5062633;28;20048;-72
2023/11/05 05:55:56;;;;;;;;;;;;;;;;;;5063593;28;20585;-73
2023/11/05 05:58:26;;;;;;;3.22;1.38;;;;;;;;;;5062337;28;19946;-72
2023/11/05 06:00:57;;;;;;;2.45;1.27;;;;;;;;;;5062481;28;20052;-73
2023/11/05 06:03:32;;;;;;;5.75;1.38;;;;;;;;;;5062444;28;20052;-73
2023/11/05 06:06:02;;;;;;;1.48;1.13;;;;;;;;;;5062383;28;20064;-72
2023/11/05 06:08:33;;;;;;;1.42;1.23;;;;;;;;;;5060537;28;20056;-71
2023/11/05 06:11:03;;;;;;;1.63;1.13;;;;;;;;;;5062220;28;20491;-72
2023/11/05 06:13:34;;;;;;;4.15;1.65;;;;;;;;;;5061290;28;20061;-73
2023/11/05 06:16:05;;;;;;;2.10;1.33;;;;;;;;;;5060429;28;20048;-72
2023/11/05 06:18:37;;;;;;;1.95;1.30;;;;;;;;;;5062589;28;20049;-73
2023/11/05 06:21:07;;;;;;;2.75;1.40;;;;;;;;;;5062163;28;20044;-73
2023/11/05 06:23:37;;;;;;;;;;;;;;;;;;5062355;28;20052;-73
2023/11/05 06:26:10;;;;;;;5.25;1.30;;;;;;;;;;5061381;28;19924;-73
2023/11/05 06:28:41;;;;;;;2.10;1.02;;;;;;;;;;5062414;28;20044;-73
2023/11/05 06:31:12;;;;;;;1.63;1.20;;;;;;;;;;5062596;28;20044;-73
2023/11/05 06:33:44;;;;;;;6.88;1.25;;;;;;;;;;5061953;28;20053;-72
2023/11/05 06:36:16;;;;;;;3.35;1.17;;;;;;;;;;5062152;28;20048;-72
2023/11/05 06:38:46;;;;;;;2.25;1.15;;;;;;;;;;5062008;28;20049;-72
2023/11/05 06:41:16;;;;;;;;;;;;;;;;;;5063199;28;20048;-71
2023/11/05 06:43:46;;;;;;;3.10;1.23;;;;;;;;;;5061529;28;19931;-73
2023/11/05 06:46:16;;;;;;;6.57;1.30;;;;;;;;;;5061525;28;20044;-73
2023/11/05 06:48:47;;;;;;;3.25;1.40;;;;;;;;;;5062047;28;20407;-71
2023/11/05 06:51:17;;;;;;;3.42;2.40;;;;;;;;;;5062238;28;20072;-72
2023/11/05 06:53:47;;;;;;;1.77;1.33;;;;;;;;;;5061622;28;20080;-71
2023/11/05 06:56:18;;;;;;;3.28;1.35;;;;;;;;;;5061376;28;20049;-71
2023/11/05 06:59:06;;;;;;;2.90;1.50;;;;;;;;;;5061481;28;20902;-71
2023/11/05 07:01:36;;;;;;;3.22;1.17;;;;;;;;;;5062171;28;20075;-71
2023/11/05 07:04:07;;;;;;;4.18;1.08;;;;;;;;;;5062033;28;20048;-71
2023/11/05 07:06:37;;;;;;;2.20;1.20;;;;;;;;;;5060014;28;20422;-72
2023/11/05 07:09:09;;;;;;;2.17;1.10;;;;;;;;;;5061497;28;20052;-71
2023/11/05 07:11:40;;;;;;;2.28;1.27;;;;;;;;;;5061776;28;20648;-71
2023/11/05 07:14:10;;;;;;;2.05;1.15;;;;;;;;;;5061762;28;20720;-72
2023/11/05 07:16:42;;;;;;;1.67;1.20;;;;;;;;;;5062508;28;20045;-71
2023/11/05 07:19:12;;;;;;;2.40;1.23;;;;;;;;;;5062009;28;20049;-72
2023/11/05 07:21:47;;;;;;;2.40;1.13;;;;;;;;;;5062240;28;20045;-71
2023/11/05 07:24:17;;;;;;;1.70;1.15;;;;;;;;;;5061377;28;20055;-71
2023/11/05 07:26:48;;;;;;;2.95;0.95;;;;;;;;;;5061439;28;20414;-72
2023/11/05 07:29:19;;;;;;;3.47;1.10;;;;;;;;;;5061821;28;20052;-71
2023/11/05 07:31:50;;;;;;;1.88;1.02;;;;;;;;;;5060058;28;20045;-71
2023/11/05 07:34:19;;;;;;;2.92;1.20;;;;;;;;;;5061113;28;20054;-71
2023/11/05 07:36:50;;;;;;;4.20;1.65;;;;;;;;;;5059059;28;20063;-71
2023/11/05 07:39:21;;;;;;;1.15;0.82;;;;;;;;;;5062030;28;20635;-71
2023/11/05 07:41:51;;;;;;;1.70;1.10;;;;;;;;;;5063470;28;20051;-71
2023/11/05 07:44:21;;;;;;;3.53;1.25;;;;;;;;;;5065381;28;20055;-71
2023/11/05 07:46:51;;;;;;;2.63;1.05;;;;;;;;;;5063276;28;20419;-72
2023/11/05 07:49:22;;;;;;;1.73;1.13;;;;;;;;;;5065389;28;20067;-71
2023/11/05 07:51:52;;;;;;;1.58;1.13;;;;;;;;;;5064640;28;20057;-72
2023/11/05 07:54:23;;;;;;;5.32;1.42;;;;;;;;;;5064893;28;20498;-71
2023/11/05 07:56:53;;;;;;;1.80;1.20;;;;;;;;;;5064762;28;20051;-71
2023/11/05 07:59:23;;;;;;;1.88;1.00;;;;;;;;;;5065007;28;20048;-70
2023/11/05 08:01:53;;;;;;;2.92;1.40;;;;;;;;;;5065447;28;20045;-70
2023/11/05 08:04:25;;;;;;;1.48;1.15;;;;;;;;;;5064520;28;20052;-71
2023/11/05 08:06:55;;;;;;;3.75;1.35;;;;;;;;;;5064647;28;20068;-71
2023/11/05 08:09:25;;;;;;;3.65;1.27;;;;;;;;;;5062416;28;20064;-71
2023/11/05 08:11:58;;;;;;;4.82;1.30;;;;;;;;;;5079487;28;20903;-70
2023/11/05 08:14:32;;;;;;;2.72;1.42;;;;;;;;;;5064835;28;20044;-72
2023/11/05 08:17:03;;;;;;;5.35;2.00;;;;;;;;;;5064427;28;20049;-72
2023/11/05 08:19:34;;;;;;;1.80;1.13;;;;;;;;;;5064594;28;20526;-71
2023/11/05 08:22:05;;;;;;;1.70;1.15;;;;;;;;;;5064095;28;20048;-71
2023/11/05 08:24:37;;;;;;;2.30;1.30;;;;;;;;;;5064600;28;20064;-72
2023/11/05 08:27:08;;;;;;;3.30;1.25;;;;;;;;;;5064273;28;20047;-71
2023/11/05 08:29:40;;;;;;;2.85;1.45;;;;;;;;;;5064326;28;20681;-72
2023/11/05 08:32:13;;;;;;;4.65;1.40;;;;;;;;;;5062995;28;20055;-70
2023/11/05 08:34:44;;;;;;;1.58;1.25;;;;;;;;;;5064192;28;20055;-71
2023/11/05 08:37:14;;;;;;;1.38;1.13;;;;;;;;;;5065080;28;20045;-71
2023/11/05 08:39:44;;;;;;;1.45;1.08;;;;;;;;;;5064528;28;20041;-71
2023/11/05 08:42:14;;;;;;;5.07;1.67;;;;;;;;;;5064510;28;20055;-71
2023/11/05 08:44:44;;;;;;;2.50;1.23;;;;;;;;;;5064157;28;20041;-71
2023/11/05 08:47:16;;;;;;;2.20;1.48;;;;;;;;;;5063614;28;20049;-71
2023/11/05 08:49:47;;;;;;;2.58;1.48;;;;;;;;;;5063284;28;20511;-71
2023/11/05 08:52:19;;;;;;;3.15;1.08;;;;;;;;;;5064523;28;20048;-71
2023/11/05 08:54:50;;;;;;;1.80;1.02;;;;;;;;;;5062403;28;20051;-71
2023/11/05 08:57:20;;;;;;;2.42;1.23;;;;;;;;;;5063632;28;20514;-71
2023/11/05 08:59:51;;;;;;;6.03;1.58;;;;;;;;;;5063461;28;20509;-72
2023/11/05 09:02:23;;;;;;;2.90;1.65;;;;;;;;;;5064695;28;20063;-71
2023/11/05 09:04:55;;;;;;;1.98;1.40;;;;;;;;;;5063640;28;20040;-71
2023/11/05 09:07:27;;;;;;;2.33;1.48;;;;;;;;;;5063961;28;20060;-71
2023/11/05 09:09:58;;;;;;;2.60;1.25;;;;;;;;;;5063412;28;20176;-71
2023/11/05 09:12:29;;;;;;;3.42;1.50;;;;;;;;;;5064728;28;20048;-70
2023/11/05 09:15:00;;;;;;;3.45;1.27;;;;;;;;;;5064009;28;20039;-70
2023/11/05 09:17:32;;;;;;;3.28;1.60;;;;;;;;;;5063417;28;20056;-71
2023/11/05 09:20:08;;;;;;;3.67;1.70;;;;;;;;;;5062698;28;20052;-71
2023/11/05 09:22:41;;;;;;;2.67;1.67;;;;;;;;;;5063114;28;20059;-71
2023/11/05 09:25:12;;;;;;;2.13;1.45;;;;;;;;;;5063255;28;20048;-71
2023/11/05 09:27:42;;;;;;;;;;;;;;;;;;5064046;28;20051;-71
2023/11/05 09:30:14;;;;;;;3.35;1.42;;;;;;;;;;5063604;28;19924;-71
2023/11/05 09:32:45;;;;;;;1.92;1.23;;;;;;;;;;5062842;28;20418;-71
2023/11/05 09:35:15;;;;;;;2.17;1.50;;;;;;;;;;5062869;28;20044;-72
2023/11/05 09:37:46;;;;;;;2.97;1.52;;;;;;;;;;5062804;28;20056;-71
2023/11/05 09:40:17;;;;;;;2.45;1.50;;;;;;;;;;5063456;28;20060;-72
2023/11/05 09:43:01;;;;;;;3.25;1.45;;;;;;;;;;5063401;28;20048;-71
2023/11/05 09:45:34;;;;;;;3.42;1.33;;;;;;;;;;5062861;28;20056;-72
2023/11/05 09:48:13;;;;;;;3.00;1.48;;;;;;;;;;5061278;28;20685;-72
2023/11/05 09:50:46;;;;;;;2.50;1.55;;;;;;;;;;5062481;28;20515;-71
2023/11/05 09:53:17;;;;;;;3.20;1.50;;;;;;;;;;5078148;28;20044;-72
2023/11/05 09:55:48;;;;;;;2.58;1.63;;;;;;;;;;5062685;28;20055;-72
2023/11/05 09:58:19;;;;;;;3.33;1.70;;;;;;;;;;5062241;28;20044;-72
2023/11/05 10:00:51;;;;;;;4.80;1.40;;;;;;;;;;5061991;28;20060;-73
2023/11/05 10:03:26;;;;;;;2.58;1.70;;;;;;;;;;5062322;28;20499;-71
2023/11/05 10:05:56;;;;;;;9.23;2.63;;;;;;;;;;5061747;28;20424;-71
2023/11/05 10:08:28;;;;;;;6.93;3.17;;;;;;;;;;5062412;28;20048;-71
2023/11/05 10:10:58;;;;;;;5.82;2.30;;;;;;;;;;5062085;28;20055;-72
2023/11/05 10:13:30;;;;;;;6.22;2.05;;;;;;;;;;5062151;28;20052;-73
2023/11/05 10:16:00;;;;;;;2.88;1.70;;;;;;;;;;5062649;28;20049;-73
2023/11/05 10:18:38;;;;;;;8.73;1.70;;;;;;;;;;5062772;28;20044;-72
2023/11/05 10:21:10;;;;;;;3.75;1.75;;;;;;;;;;5061905;28;20044;-72
2023/11/05 10:23:51;;;;;;;2.08;1.58;;;;;;;;;;5062476;28;20057;-72
2023/11/05 10:26:29;;;;;;;3.25;1.73;;;;;;;;;;5061902;28;20056;-73
2023/11/05 10:29:01;;;;;;;2.28;1.58;;;;;;;;;;5062658;28;20055;-71
2023/11/05 10:31:33;;;;;;;1.70;1.45;;;;;;;;;;5062262;28;20040;-71
2023/11/05 10:34:05;;;;;;;2.22;1.60;;;;;;;;;;5062725;28;20067;-73
2023/11/05 10:36:36;;;;;;;6.43;2.60;;;;;;;;;;5062496;28;20052;-72
2023/11/05 10:39:07;;;;;;;2.97;1.33;;;;;;;;;;5062237;28;21015;-72
2023/11/05 10:41:38;;;;;;;2.90;1.50;;;;;;;;;;5062205;28;20055;-71
2023/11/05 10:44:10;;;;;;;3.50;1.63;;;;;;;;;;5062020;28;20074;-73
2023/11/05 10:46:42;;;;;;;3.30;1.52;;;;;;;;;;5061815;28;20059;-72
2023/11/05 10:49:13;;;;;;;1.98;1.33;;;;;;;;;;5045248;28;20052;-72
2023/11/05 10:51:44;;;;;;;4.97;2.03;;;;;;;;;;5061631;28;20053;-74
2023/11/05 10:54:16;;;;;;;2.17;1.20;;;;;;;;;;5061470;28;20059;-72
2023/11/05 10:56:47;;;;;;;2.80;1.33;;;;;;;;;;5061420;28;20048;-72
2023/11/05 10:59:38;;;;;;;2.78;1.23;;;;;;;;;;5061718;28;20075;-72
2023/11/05 11:02:13;;;;;;;2.08;0.98;;;;;;;;;;5062137;28;20542;-73
2023/11/05 11:04:44;;;;;;;2.55;1.00;;;;;;;;;;5062232;28;20044;-73
2023/11/05 11:07:14;;;;;;;2.53;1.60;;;;;;;;;;5062070;28;20702;-73
2023/11/05 11:09:46;;;;;;;5.07;1.38;;;;;;;;;;5061716;28;20052;-72
2023/11/05 11:12:31;;;;;;;2.15;1.05;;;;;;;;;;5063181;28;20059;-73
2023/11/05 11:15:08;;;;;;;4.38;1.10;;;;;;;;;;5063518;28;20511;-73
2023/11/05 11:17:41;;;;;;;2.83;1.17;;;;;;;;;;5065771;28;20491;-74
2023/11/05 11:20:16;;;;;;;1.90;1.10;;;;;;;;;;5065378;28;20517;-72
2023/11/05 11:22:48;;;;;;;4.45;1.13;;;;;;;;;;5065788;28;20051;-72
2023/11/05 11:25:20;;;;;;;3.05;0.90;;;;;;;;;;5065713;28;20052;-72
2023/11/05 11:27:50;;;;;;;1.65;1.00;;;;;;;;;;5065639;28;20053;-73
2023/11/05 11:30:20;;;;;;;4.50;1.23;;;;;;;;;;5080290;28;20071;-73
2023/11/05 11:32:53;;;;;;;3.92;1.08;;;;;;;;;;5065497;28;20040;-73
2023/11/05 11:35:24;;;;;;;2.78;0.98;;;;;;;;;;5064316;28;20060;-72
2023/11/05 11:37:57;;;;;;;4.68;1.08;;;;;;;;;;5065479;28;20059;-72
2023/11/05 11:40:27;;;;;;;3.03;0.73;;;;;;;;;;5066219;28;20056;-73
2023/11/05 11:42:58;;;;;;;5.00;1.20;;;;;;;;;;5065784;28;20052;-77
2023/11/05 11:45:29;;;;;;;4.60;0.93;;;;;;;;;;5065586;28;20051;-72
2023/11/05 11:48:07;;;;;;;2.38;1.00;;;;;;;;;;5063636;28;20499;-72
2023/11/05 11:50:55;;;;;;;4.47;1.20;;;;;;;;;;5064865;28;20230;-73
2023/11/05 11:53:34;;;;;;;1.52;0.80;;;;;;;;;;5065178;28;20053;-72
2023/11/05 11:56:06;;;;;;;5.95;0.90;;;;;;;;;;5064673;28;20055;-72
2023/11/05 11:58:39;;;;;;;2.80;1.30;;;;;;;;;;5064750;28;20080;-72
2023/11/05 12:01:15;;;;;;;3.05;1.02;;;;;;;;;;5065014;28;20075;-72
2023/11/05 12:03:46;;;;;;;5.68;1.23;;;;;;;;;;5062866;28;20083;-72
2023/11/05 12:06:19;;;;;;;2.50;1.20;;;;;;;;;;5062964;28;20593;-73
2023/11/05 12:08:52;;;;;;;2.92;1.23;;;;;;;;;;5065024;28;20410;-73
2023/11/05 12:11:29;;;;;;;1.58;0.85;;;;;;;;;;5064882;28;20049;-73
2023/11/05 12:14:02;;;;;;;2.95;0.80;;;;;;;;;;5065235;28;20499;-73
2023/11/05 12:16:35;;;;;;;4.68;0.95;;;;;;;;;;5064601;28;20052;-73
2023/11/05 12:19:08;;;;;;;4.57;1.40;;;;;;;;;;5064676;28;20052;-73
2023/11/05 12:21:39;;;;;;;2.92;1.35;;;;;;;;;;5064499;28;20041;-72
2023/11/05 12:24:15;;;;;;;3.08;0.80;;;;;;;;;;5063599;28;20426;-72
2023/11/05 12:26:51;;;;;;;2.53;1.00;;;;;;;;;;5064295;28;20121;-72
2023/11/05 12:29:24;;;;;;;2.80;1.05;;;;;;;;;;5063177;28;20143;-71
2023/11/05 12:31:55;;;;;;;6.25;0.98;;;;;;;;;;5079562;28;20048;-72
2023/11/05 12:34:26;;;;;;;4.53;0.95;;;;;;;;;;5063834;28;20044;-72
2023/11/05 12:36:57;;;;;;;5.18;0.95;;;;;;;;;;5064399;28;20503;-72
2023/11/05 12:39:27;;;;;;;3.22;0.90;;;;;;;;;;5065094;28;20436;-72
2023/11/05 12:41:57;;;;;;;1.73;0.90;;;;;;;;;;5084612;28;20048;-77
2023/11/05 12:44:28;;;;;;;6.07;1.00;;;;;;;;;;5084538;28;20047;-75
2023/11/05 12:47:01;;;;;;;4.90;1.27;;;;;;;;;;5084732;28;20997;-71
2023/11/05 12:49:31;;;;;;;6.25;0.95;;;;;;;;;;5084129;28;20043;-71
2023/11/05 12:52:01;;;;;;;2.28;0.63;;;;;;;;;;5084379;28;20051;-73
2023/11/05 12:54:32;;;;;;;3.22;0.90;;;;;;;;;;5084268;28;20059;-72
2023/11/05 12:57:04;;;;;;;2.40;0.80;;;;;;;;;;5083928;28;20544;-72
2023/11/05 12:59:39;;;;;;;3.92;0.90;;;;;;;;;;5084079;28;20130;-72
2023/11/05 13:02:09;;;;;;;2.33;0.93;;;;;;;;;;5084905;28;20052;-72
2023/11/05 13:04:39;;;;;;;3.50;0.77;;;;;;;;;;5083973;28;20051;-72
2023/11/05 13:07:10;;;;;;;1.15;0.60;;;;;;;;;;5083529;28;20052;-73
2023/11/05 13:09:41;;;;;;;1.77;0.60;;;;;;;;;;5083678;28;20048;-73
2023/11/05 13:12:14;;;;;;;4.53;0.80;;;;;;;;;;5084012;28;20051;-74
2023/11/05 13:14:44;;;;;;;3.30;1.10;;;;;;;;;;5083378;28;20553;-72
2023/11/05 13:17:14;;;;;;;2.67;0.82;;;;;;;;;;5065415;28;20533;-73
2023/11/05 13:19:44;;;;;;;1.10;0.60;;;;;;;;;;5083775;28;20048;-72
2023/11/05 13:22:15;;;;;;;4.82;0.80;;;;;;;;;;5083571;28;20048;-73
2023/11/05 13:24:46;;;;;;;1.60;0.60;;;;;;;;;;5083303;28;20043;-72
2023/11/05 13:27:16;;;;;;;2.15;0.63;;;;;;;;;;5083002;28;20043;-73
2023/11/05 13:29:46;;;;;;;1.55;0.65;;;;;;;;;;5083111;28;20040;-72
2023/11/05 13:32:16;;;;;;;4.05;0.73;;;;;;;;;;5083372;28;20036;-72
2023/11/05 13:34:47;;;;;;;12.77;1.10;;;;;;;;;;5082733;28;20052;-72
2023/11/05 13:37:19;;;;;;;3.40;2.03;;;;;;;;;;5082705;28;20047;-72
2023/11/05 13:39:49;;;;;;;3.88;0.77;;;;;;;;;;5084269;28;20044;-71
2023/11/05 13:42:20;;;;;;;5.90;0.70;;;;;;;;;;5081975;28;20048;-72
2023/11/05 13:44:52;;;;;;;4.57;0.90;;;;;;;;;;5082998;28;20051;-71
2023/11/05 13:47:23;;;;;;;4.38;0.73;;;;;;;;;;5082570;28;20529;-73
2023/11/05 13:49:58;;;;;;;1.70;0.60;;;;;;;;;;5083075;28;20055;-73
2023/11/05 13:52:28;;;;;;;1.77;0.77;;;;;;;;;;5064398;28;20066;-73
2023/11/05 13:54:59;;;;;;;1.58;0.50;;;;;;;;;;5082805;28;20126;-73
2023/11/05 13:57:31;;;;;;;2.60;0.80;;;;;;;;;;5082061;28;20522;-73
2023/11/05 14:00:01;;;;;;;2.20;0.55;;;;;;;;;;5082800;28;20048;-72
2023/11/05 14:02:31;;;;;;;2.55;0.55;;;;;;;;;;5086322;28;20055;-74
2023/11/05 14:05:04;;;;;;;4.82;0.80;;;;;;;;;;5083004;28;20044;-73
2023/11/05 14:07:37;;;;;;;2.47;0.50;;;;;;;;;;5081601;28;20544;-75
2023/11/05 14:10:09;;;;;;;2.53;0.70;;;;;;;;;;5083437;28;20039;-74
2023/11/05 14:12:40;;;;;;;1.88;0.80;;;;;;;;;;5082601;28;20059;-71
2023/11/05 14:15:12;;;;;;;3.65;0.65;;;;;;;;;;5081055;28;20052;-74
2023/11/05 14:17:42;;;;;;;2.17;0.70;;;;;;;;;;5082715;28;20498;-72
2023/11/05 14:20:13;;;;;;;1.52;0.73;;;;;;;;;;5083987;28;20044;-72
2023/11/05 14:22:42;;;;;;;2.08;0.75;;;;;;;;;;5082563;28;20044;-76
2023/11/05 14:25:15;;;;;;;2.40;0.85;;;;;;;;;;5082566;28;20055;-76
2023/11/05 14:27:46;;;;;;;1.73;0.50;;;;;;;;;;5082541;28;20411;-74
2023/11/05 14:30:17;;;;;;;3.28;0.57;;;;;;;;;;5082282;28;20059;-72
2023/11/05 14:32:47;;;;;;;1.50;0.60;;;;;;;;;;5080945;28;20055;-72
2023/11/05 14:35:18;;;;;;;2.30;0.60;;;;;;;;;;5081093;28;20043;-73
2023/11/05 14:37:48;;;;;;;1.83;1.45;;;;;;;;;;5064420;28;20062;-72
2023/11/05 14:40:18;;;;;;;2.92;0.75;;;;;;;;;;5082232;28;20051;-73
2023/11/05 14:42:49;;;;;;;4.82;0.73;;;;;;;;;;5082030;28;20048;-72
2023/11/05 14:45:21;;;;;;;2.88;0.57;;;;;;;;;;5082223;28;20061;-72
2023/11/05 14:47:57;;;;;;;1.25;0.47;;;;;;;;;;5081033;28;20048;-71
2023/11/05 14:50:33;;;;;;;2.58;0.65;;;;;;;;;;5080507;28;20529;-73
2023/11/05 14:53:04;;;;;;;1.92;0.98;;;;;;;;;;5082393;28;20414;-72
2023/11/05 14:55:36;;;;;;;2.25;0.70;;;;;;;;;;5082349;28;20055;-75
2023/11/05 14:58:06;;;;;;;1.30;0.75;;;;;;;;;;5081104;28;20048;-73
2023/11/05 15:00:38;;;;;;;2.63;0.70;;;;;;;;;;5082361;28;20044;-72
2023/11/05 15:03:09;;;;;;;2.00;0.52;;;;;;;;;;5082931;28;20052;-72
2023/11/05 15:05:42;;;;;;;1.48;0.68;;;;;;;;;;5078884;28;20059;-73
2023/11/05 15:08:16;;;;;;;2.38;0.70;;;;;;;;;;5081864;28;20133;-73
2023/11/05 15:10:51;;;;;;;2.58;0.70;;;;;;;;;;5078073;28;20045;-73
2023/11/05 15:13:22;;;;;;;4.53;0.68;;;;;;;;;;5081240;28;20056;-74